createdAt,value
2022-09-27T00:00:01.143Z,12.70
2022-09-27T00:02:29.515Z,12.70
2022-09-27T00:04:59.399Z,12.70
2022-09-27T00:07:27.751Z,12.70
2022-09-27T00:09:56.109Z,12.70
2022-09-27T00:12:24.485Z,12.70
2022-09-27T00:14:52.885Z,12.80
2022-09-27T00:17:21.218Z,12.80
2022-09-27T00:19:49.593Z,12.80
2022-09-27T00:22:19.218Z,12.80
2022-09-27T00:24:47.485Z,12.80
2022-09-27T00:27:15.876Z,12.80
2022-09-27T00:29:45.455Z,12.80
2022-09-27T00:32:14.536Z,12.80
2022-09-27T00:34:43.672Z,12.80
2022-09-27T00:37:12.568Z,12.80
2022-09-27T00:39:42.427Z,12.80
2022-09-27T00:42:12.298Z,12.80
2022-09-27T00:45:02.072Z,12.80
2022-09-27T00:47:36.128Z,12.80
2022-09-27T00:50:09.114Z,12.80
2022-09-27T00:52:44.553Z,12.80
2022-09-27T00:55:17.345Z,12.80
2022-09-27T00:57:47.455Z,12.80
2022-09-27T01:00:17.404Z,12.70
2022-09-27T01:02:48.989Z,12.80
2022-09-27T01:05:21.177Z,12.70
2022-09-27T01:07:49.806Z,12.80
2022-09-27T01:10:21.600Z,12.70
2022-09-27T01:13:00.576Z,12.70
2022-09-27T01:15:38.475Z,12.70
2022-09-27T01:18:25.058Z,12.70
2022-09-27T01:21:35.249Z,12.70
2022-09-27T01:24:37.341Z,12.70
2022-09-27T01:27:39.254Z,12.70
2022-09-27T01:30:21.508Z,12.70
2022-09-27T01:33:03.875Z,12.70
2022-09-27T01:35:39.874Z,12.70
2022-09-27T01:38:16.573Z,12.70
2022-09-27T01:40:54.275Z,12.60
2022-09-27T01:43:48.028Z,12.60
2022-09-27T01:46:27.031Z,12.70
2022-09-27T01:49:27.804Z,12.60
2022-09-27T01:51:59.983Z,12.60
2022-09-27T01:54:37.402Z,12.60
2022-09-27T01:57:45.250Z,12.60
2022-09-27T02:00:20.783Z,12.60
2022-09-27T02:02:54.057Z,12.60
2022-09-27T02:05:36.645Z,12.60
2022-09-27T02:08:27.875Z,12.70
2022-09-27T02:11:01.286Z,12.60
2022-09-27T02:13:39.813Z,12.60
2022-09-27T02:16:37.455Z,12.60
2022-09-27T02:19:14.224Z,12.60
2022-09-27T02:21:51.929Z,12.50
2022-09-27T02:24:25.800Z,12.50
2022-09-27T02:27:00.708Z,12.50
2022-09-27T02:29:36.249Z,12.50
2022-09-27T02:32:04.868Z,12.50
2022-09-27T02:34:38.660Z,12.40
2022-09-27T02:37:07.687Z,12.40
2022-09-27T02:39:36.488Z,12.40
2022-09-27T02:42:08.939Z,12.40
2022-09-27T02:44:39.507Z,12.30
2022-09-27T02:47:38.225Z,12.30
2022-09-27T02:50:38.658Z,12.30
2022-09-27T02:53:41.047Z,12.20
2022-09-27T02:56:43.152Z,12.10
2022-09-27T02:59:36.817Z,12.10
2022-09-27T03:02:37.264Z,12.00
2022-09-27T03:05:38.349Z,12.00
2022-09-27T03:08:08.144Z,11.90
2022-09-27T03:10:36.515Z,11.90
2022-09-27T03:13:05.010Z,11.80
2022-09-27T03:15:33.819Z,11.80
2022-09-27T03:18:02.292Z,11.80
2022-09-27T03:20:50.678Z,11.70
2022-09-27T03:23:20.834Z,11.70
2022-09-27T03:25:49.925Z,11.70
2022-09-27T03:28:18.986Z,11.70
2022-09-27T03:30:48.481Z,11.60
2022-09-27T03:33:36.741Z,11.60
2022-09-27T03:36:12.059Z,11.60
2022-09-27T03:38:40.509Z,11.70
2022-09-27T03:41:12.744Z,11.60
2022-09-27T03:43:41.448Z,11.60
2022-09-27T03:46:09.841Z,11.70
2022-09-27T03:48:38.597Z,11.70
2022-09-27T03:51:07.156Z,11.70
2022-09-27T03:53:37.639Z,11.70
2022-09-27T03:56:06.537Z,11.70
2022-09-27T03:58:35.756Z,11.70
2022-09-27T04:01:04.640Z,11.70
2022-09-27T04:03:36.147Z,11.70
2022-09-27T04:06:27.324Z,11.70
2022-09-27T04:08:57.427Z,11.70
2022-09-27T04:11:34.538Z,11.70
2022-09-27T04:14:05.225Z,11.70
2022-09-27T04:16:40.369Z,11.70
2022-09-27T04:19:34.217Z,11.70
2022-09-27T04:22:10.908Z,11.70
2022-09-27T04:24:40.986Z,11.80
2022-09-27T04:27:24.044Z,11.70
2022-09-27T04:29:52.995Z,11.80
2022-09-27T04:32:45.437Z,11.70
2022-09-27T04:35:49.326Z,11.70
2022-09-27T04:38:20.288Z,11.70
2022-09-27T04:40:50.707Z,11.70
2022-09-27T04:43:19.583Z,11.70
2022-09-27T04:45:48.031Z,11.70
2022-09-27T04:48:16.613Z,11.80
2022-09-27T04:50:45.026Z,11.70
2022-09-27T04:53:15.415Z,11.80
2022-09-27T04:55:47.420Z,11.80
2022-09-27T04:58:17.906Z,11.80
2022-09-27T05:00:47.880Z,11.80
2022-09-27T05:03:36.555Z,11.80
2022-09-27T05:06:12.819Z,11.80
2022-09-27T05:08:41.371Z,11.80
2022-09-27T05:11:38.083Z,11.80
2022-09-27T05:14:30.795Z,11.80
2022-09-27T05:17:24.034Z,11.90
2022-09-27T05:19:52.593Z,11.90
2022-09-27T05:22:41.835Z,11.90
2022-09-27T05:25:11.155Z,11.90
2022-09-27T05:27:39.656Z,11.90
2022-09-27T05:30:09.964Z,12.00
2022-09-27T05:32:51.526Z,12.00
2022-09-27T05:35:28.870Z,12.00
2022-09-27T05:38:00.869Z,12.00
2022-09-27T05:40:41.674Z,12.10
2022-09-27T05:43:11.578Z,12.10
2022-09-27T05:45:41.436Z,12.10
2022-09-27T05:48:10.018Z,12.10
2022-09-27T05:50:45.823Z,12.20
2022-09-27T05:53:14.434Z,12.20
2022-09-27T05:55:43.625Z,12.20
2022-09-27T05:58:16.530Z,12.30
2022-09-27T06:00:55.389Z,12.30
2022-09-27T06:03:50.060Z,12.30
2022-09-27T06:06:47.617Z,12.40
2022-09-27T06:09:17.671Z,12.40
2022-09-27T06:11:48.048Z,12.40
2022-09-27T06:14:18.410Z,12.40
2022-09-27T06:17:08.250Z,12.40
2022-09-27T06:19:41.007Z,12.40
2022-09-27T06:22:09.636Z,12.40
2022-09-27T06:24:52.460Z,12.50
2022-09-27T06:27:26.398Z,12.50
2022-09-27T06:30:20.903Z,12.60
2022-09-27T06:32:59.127Z,12.70
2022-09-27T06:35:33.918Z,12.70
2022-09-27T06:38:05.265Z,12.80
2022-09-27T06:40:34.128Z,12.90
2022-09-27T06:43:22.248Z,12.90
2022-09-27T06:46:13.732Z,12.90
2022-09-27T06:49:18.835Z,13.00
2022-09-27T06:51:48.740Z,13.10
2022-09-27T06:54:17.129Z,13.10
2022-09-27T06:56:45.595Z,13.10
2022-09-27T06:59:31.264Z,13.20
2022-09-27T07:02:18.821Z,13.20
2022-09-27T07:05:21.687Z,13.30
2022-09-27T07:08:08.395Z,13.40
2022-09-27T07:10:38.004Z,13.50
2022-09-27T07:13:08.075Z,13.60
2022-09-27T07:15:37.335Z,13.70
2022-09-27T07:18:10.315Z,13.70
2022-09-27T07:20:41.306Z,13.80
2022-09-27T07:23:11.859Z,13.90
2022-09-27T07:25:40.276Z,13.90
2022-09-27T07:28:12.715Z,13.90
2022-09-27T07:30:41.690Z,14.00
2022-09-27T07:33:10.864Z,14.10
2022-09-27T07:35:43.645Z,14.10
2022-09-27T07:38:14.147Z,14.20
2022-09-27T07:40:42.939Z,14.20
2022-09-27T07:43:12.343Z,14.30
2022-09-27T07:45:41.704Z,14.40
2022-09-27T07:48:25.477Z,14.40
2022-09-27T07:51:07.798Z,14.40
2022-09-27T07:53:47.953Z,14.40
2022-09-27T07:56:48.333Z,14.40
2022-09-27T07:59:19.227Z,14.40
2022-09-27T08:01:47.616Z,14.40
2022-09-27T08:04:15.963Z,14.40
2022-09-27T08:06:45.626Z,14.40
2022-09-27T08:09:14.104Z,14.40
2022-09-27T08:11:44.896Z,14.40
2022-09-27T08:14:14.896Z,14.30
2022-09-27T08:16:46.083Z,14.40
2022-09-27T08:19:15.200Z,14.40
2022-09-27T08:21:49.658Z,14.40
2022-09-27T08:24:24.194Z,14.40
2022-09-27T08:27:15.849Z,14.40
2022-09-27T08:29:49.672Z,14.40
2022-09-27T08:32:23.057Z,14.40
2022-09-27T08:34:52.493Z,14.40
2022-09-27T08:37:24.317Z,14.50
2022-09-27T08:39:52.804Z,14.50
2022-09-27T08:42:32.779Z,14.50
2022-09-27T08:45:09.301Z,14.60
2022-09-27T08:47:42.062Z,14.60
2022-09-27T08:50:22.671Z,14.60
2022-09-27T08:52:57.765Z,14.70
2022-09-27T08:55:33.298Z,14.80
2022-09-27T08:58:02.386Z,14.80
2022-09-27T09:00:32.049Z,14.80
2022-09-27T09:03:03.705Z,14.80
2022-09-27T09:05:37.683Z,14.80
2022-09-27T09:08:32.445Z,14.90
2022-09-27T09:11:28.436Z,14.90
2022-09-27T09:14:27.624Z,15.00
2022-09-27T09:17:05.984Z,15.10
2022-09-27T09:19:55.768Z,15.10
2022-09-27T09:22:59.559Z,15.10
2022-09-27T09:25:36.798Z,15.10
2022-09-27T09:28:15.534Z,15.20
2022-09-27T09:30:56.684Z,15.20
2022-09-27T09:33:31.027Z,15.20
2022-09-27T09:36:05.504Z,15.20
2022-09-27T09:38:40.113Z,15.30
2022-09-27T09:41:17.204Z,15.30
2022-09-27T09:43:51.357Z,15.30
2022-09-27T09:46:26.275Z,15.30
2022-09-27T09:49:07.226Z,15.30
2022-09-27T09:51:40.734Z,15.40
2022-09-27T09:54:20.858Z,15.40
2022-09-27T09:56:57.350Z,15.40
2022-09-27T09:59:30.577Z,15.40
2022-09-27T10:02:09.110Z,15.40
2022-09-27T10:04:37.638Z,15.40
2022-09-27T10:07:06.117Z,15.30
2022-09-27T10:09:37.317Z,15.20
2022-09-27T10:12:45.863Z,15.10
2022-09-27T10:15:18.327Z,15.10
2022-09-27T10:17:51.542Z,15.00
2022-09-27T10:20:29.844Z,14.80
2022-09-27T10:23:04.903Z,14.80
2022-09-27T10:25:55.384Z,14.70
2022-09-27T10:28:43.588Z,14.70
2022-09-27T10:31:18.129Z,14.70
2022-09-27T10:34:02.251Z,14.80
2022-09-27T10:36:38.774Z,14.80
2022-09-27T10:39:21.882Z,14.80
2022-09-27T10:41:50.356Z,14.80
2022-09-27T10:44:38.643Z,14.80
2022-09-27T10:47:22.876Z,14.80
2022-09-27T10:50:07.931Z,14.80
2022-09-27T10:53:04.843Z,14.80
2022-09-27T10:55:36.285Z,14.70
2022-09-27T10:58:05.976Z,14.70
2022-09-27T11:00:38.541Z,14.70
2022-09-27T11:03:14.168Z,14.70
2022-09-27T11:05:43.371Z,14.70
2022-09-27T11:08:26.685Z,14.70
2022-09-27T11:11:20.067Z,14.70
2022-09-27T11:14:08.131Z,14.70
2022-09-27T11:17:00.832Z,14.70
2022-09-27T11:19:46.134Z,14.70
2022-09-27T11:22:41.478Z,14.70
2022-09-27T11:25:21.163Z,14.70
2022-09-27T11:28:23.593Z,14.70
2022-09-27T11:31:03.396Z,14.80
2022-09-27T11:33:59.823Z,14.80
2022-09-27T11:36:43.809Z,14.80
2022-09-27T11:39:22.211Z,14.80
2022-09-27T11:42:07.287Z,14.80
2022-09-27T11:45:13.493Z,14.80
2022-09-27T11:47:53.523Z,14.90
2022-09-27T11:50:46.681Z,14.90
2022-09-27T11:53:28.947Z,14.90
2022-09-27T11:56:13.528Z,14.90
2022-09-27T11:58:50.745Z,15.00
2022-09-27T12:01:29.890Z,15.00
2022-09-27T12:04:30.863Z,15.00
2022-09-27T12:07:13.095Z,15.00
2022-09-27T12:09:46.829Z,15.00
2022-09-27T12:12:20.155Z,15.00
2022-09-27T12:14:54.436Z,15.00
2022-09-27T12:17:26.248Z,15.00
2022-09-27T12:19:58.620Z,15.00
2022-09-27T12:22:59.068Z,14.90
2022-09-27T12:26:07.516Z,14.90
2022-09-27T12:28:42.095Z,14.80
2022-09-27T12:31:28.932Z,14.80
2022-09-27T12:34:14.210Z,14.80
2022-09-27T12:36:50.314Z,14.70
2022-09-27T12:39:24.761Z,14.70
2022-09-27T12:42:06.184Z,14.70
2022-09-27T12:44:47.615Z,14.70
2022-09-27T12:47:38.077Z,14.60
2022-09-27T12:50:23.884Z,14.60
2022-09-27T12:52:57.098Z,14.50
2022-09-27T12:55:54.814Z,14.30
2022-09-27T12:58:59.665Z,14.20
2022-09-27T13:01:53.892Z,14.00
2022-09-27T13:04:37.236Z,13.80
2022-09-27T13:07:23.238Z,13.60
2022-09-27T13:10:33.044Z,13.40
2022-09-27T13:13:12.997Z,13.20
2022-09-27T13:15:45.280Z,13.10
2022-09-27T13:18:34.684Z,13.00
2022-09-27T13:21:05.326Z,12.90
2022-09-27T13:23:52.779Z,12.80
2022-09-27T13:26:45.208Z,12.80
2022-09-27T13:29:34.409Z,12.80
2022-09-27T13:32:22.701Z,12.80
2022-09-27T13:35:22.053Z,12.90
2022-09-27T13:38:07.148Z,12.90
2022-09-27T13:40:46.343Z,13.00
2022-09-27T13:43:44.638Z,13.00
2022-09-27T13:46:36.357Z,13.00
2022-09-27T13:49:15.273Z,13.10
2022-09-27T13:52:21.923Z,13.10
2022-09-27T13:55:03.910Z,13.20
2022-09-27T13:57:44.207Z,13.30
2022-09-27T14:00:19.909Z,13.40
2022-09-27T14:03:27.934Z,13.50
2022-09-27T14:06:18.507Z,13.60
2022-09-27T14:08:50.267Z,13.70
2022-09-27T14:11:23.119Z,13.80
2022-09-27T14:13:53.151Z,13.80
2022-09-27T14:16:24.060Z,13.90
2022-09-27T14:18:58.196Z,13.90
2022-09-27T14:21:41.683Z,13.90
2022-09-27T14:24:31.598Z,13.90
2022-09-27T14:27:14.191Z,14.00
2022-09-27T14:29:46.757Z,14.00
2022-09-27T14:32:21.788Z,14.00
2022-09-27T14:35:31.796Z,14.10
2022-09-27T14:38:07.504Z,14.10
2022-09-27T14:40:55.700Z,14.20
2022-09-27T14:43:24.144Z,14.20
2022-09-27T14:45:54.510Z,14.20
2022-09-27T14:48:24.538Z,14.20
2022-09-27T14:51:04.816Z,14.20
2022-09-27T14:53:37.435Z,14.20
2022-09-27T14:56:07.146Z,14.10
2022-09-27T14:58:47.270Z,14.10
2022-09-27T15:01:17.476Z,14.10
2022-09-27T15:03:48.872Z,14.00
2022-09-27T15:06:20.151Z,14.00
2022-09-27T15:08:50.430Z,14.00
2022-09-27T15:11:19.607Z,13.90
2022-09-27T15:13:52.633Z,13.90
2022-09-27T15:16:24.538Z,13.90
2022-09-27T15:19:02.535Z,13.80
2022-09-27T15:21:33.808Z,13.80
2022-09-27T15:24:03.044Z,13.70
2022-09-27T15:26:38.650Z,13.70
2022-09-27T15:29:07.283Z,13.70
2022-09-27T15:31:37.576Z,13.60
2022-09-27T15:34:06.961Z,13.60
2022-09-27T15:36:55.884Z,13.60
2022-09-27T15:39:30.167Z,13.50
2022-09-27T15:42:05.103Z,13.50
2022-09-27T15:44:39.764Z,13.50
2022-09-27T15:47:43.447Z,13.50
2022-09-27T15:50:37.487Z,13.50
2022-09-27T15:53:09.248Z,13.50
2022-09-27T15:55:42.731Z,13.40
2022-09-27T15:58:16.610Z,13.40
2022-09-27T16:00:55.794Z,13.40
2022-09-27T16:03:24.979Z,13.40
2022-09-27T16:05:56.109Z,13.40
2022-09-27T16:08:26.699Z,13.40
2022-09-27T16:10:56.434Z,13.30
2022-09-27T16:13:30.143Z,13.30
2022-09-27T16:16:01.300Z,13.30
2022-09-27T16:18:31.068Z,13.20
2022-09-27T16:20:59.759Z,13.20
2022-09-27T16:23:29.363Z,13.20
2022-09-27T16:25:57.725Z,13.20
2022-09-27T16:28:26.046Z,13.20
2022-09-27T16:30:54.365Z,13.10
2022-09-27T16:33:22.735Z,13.10
2022-09-27T16:35:52.114Z,13.00
2022-09-27T16:38:20.416Z,13.00
2022-09-27T16:40:50.030Z,13.00
2022-09-27T16:43:20.007Z,12.90
2022-09-27T16:45:48.726Z,12.90
2022-09-27T16:48:17.025Z,12.90
2022-09-27T16:51:02.459Z,12.80
2022-09-27T16:53:31.271Z,12.80
2022-09-27T16:56:01.969Z,12.80
2022-09-27T16:58:31.114Z,12.80
2022-09-27T17:01:00.075Z,12.70
2022-09-27T17:03:28.687Z,12.70
2022-09-27T17:06:04.102Z,12.70
2022-09-27T17:08:32.463Z,12.60
2022-09-27T17:11:02.088Z,12.70
2022-09-27T17:13:30.349Z,12.60
2022-09-27T17:15:58.730Z,12.60
2022-09-27T17:18:27.177Z,12.60
2022-09-27T17:21:01.645Z,12.60
2022-09-27T17:23:30.077Z,12.50
2022-09-27T17:26:06.147Z,12.50
2022-09-27T17:28:35.001Z,12.50
2022-09-27T17:31:08.905Z,12.50
2022-09-27T17:33:41.900Z,12.50
2022-09-27T17:36:12.436Z,12.50
2022-09-27T17:38:42.204Z,12.50
2022-09-27T17:41:13.886Z,12.50
2022-09-27T17:43:50.262Z,12.40
2022-09-27T17:46:20.412Z,12.40
2022-09-27T17:49:07.396Z,12.40
2022-09-27T17:51:37.939Z,12.40
2022-09-27T17:54:09.383Z,12.40
2022-09-27T17:56:39.926Z,12.40
2022-09-27T17:59:09.677Z,12.40
2022-09-27T18:01:38.945Z,12.40
2022-09-27T18:04:10.076Z,12.40
2022-09-27T18:06:40.441Z,12.40
2022-09-27T18:09:10.651Z,12.40
2022-09-27T18:11:41.161Z,12.40
2022-09-27T18:14:10.757Z,12.40
2022-09-27T18:16:43.002Z,12.40
2022-09-27T18:19:13.420Z,12.40
2022-09-27T18:21:41.886Z,12.30
2022-09-27T18:24:10.954Z,12.40
2022-09-27T18:26:40.827Z,12.30
2022-09-27T18:29:14.264Z,12.30
2022-09-27T18:31:48.233Z,12.30
2022-09-27T18:34:18.534Z,12.30
2022-09-27T18:36:47.624Z,12.30
2022-09-27T18:39:19.382Z,12.30
2022-09-27T18:41:49.576Z,12.30
2022-09-27T18:44:19.102Z,12.30
2022-09-27T18:46:47.996Z,12.30
2022-09-27T18:49:16.566Z,12.30
2022-09-27T18:51:47.257Z,12.30
2022-09-27T18:54:18.635Z,12.20
2022-09-27T18:56:50.253Z,12.20
2022-09-27T18:59:19.789Z,12.20
2022-09-27T19:01:48.393Z,12.20
2022-09-27T19:04:24.036Z,12.20
2022-09-27T19:06:53.172Z,12.20
2022-09-27T19:09:21.635Z,12.20
2022-09-27T19:11:56.658Z,12.20
2022-09-27T19:14:25.074Z,12.20
2022-09-27T19:16:53.354Z,12.20
2022-09-27T19:19:22.188Z,12.20
2022-09-27T19:21:50.904Z,12.30
2022-09-27T19:24:19.765Z,12.20
2022-09-27T19:26:48.417Z,12.20
2022-09-27T19:29:18.145Z,12.30
2022-09-27T19:31:46.687Z,12.30
2022-09-27T19:34:15.454Z,12.30
2022-09-27T19:36:43.724Z,12.30
2022-09-27T19:39:12.070Z,12.30
2022-09-27T19:41:40.420Z,12.30
2022-09-27T19:44:08.739Z,12.30
2022-09-27T19:46:39.281Z,12.30
2022-09-27T19:49:07.730Z,12.30
2022-09-27T19:51:36.023Z,12.30
2022-09-27T19:54:05.247Z,12.20
2022-09-27T19:56:34.107Z,12.20
2022-09-27T19:59:06.896Z,12.20
2022-09-27T20:01:35.833Z,12.20
2022-09-27T20:04:05.486Z,12.10
2022-09-27T20:06:34.611Z,12.10
2022-09-27T20:09:03.778Z,12.10
2022-09-27T20:11:34.030Z,12.10
2022-09-27T20:14:02.522Z,12.10
2022-09-27T20:16:30.926Z,12.10
2022-09-27T20:19:00.865Z,12.10
2022-09-27T20:21:32.795Z,12.10
2022-09-27T20:24:02.707Z,12.10
2022-09-27T20:26:34.565Z,12.00
2022-09-27T20:29:04.907Z,12.00
2022-09-27T20:31:36.898Z,12.00
2022-09-27T20:34:06.731Z,12.00
2022-09-27T20:36:38.167Z,12.00
2022-09-27T20:39:07.995Z,12.00
2022-09-27T20:41:38.738Z,11.90
2022-09-27T20:44:09.174Z,11.90
2022-09-27T20:46:39.686Z,11.90
2022-09-27T20:49:10.020Z,11.90
2022-09-27T20:51:41.627Z,11.80
2022-09-27T20:54:11.895Z,11.80
2022-09-27T20:56:42.088Z,11.80
2022-09-27T20:59:16.282Z,11.70
2022-09-27T21:01:46.176Z,11.70
2022-09-27T21:04:17.103Z,11.70
2022-09-27T21:06:47.199Z,11.60
2022-09-27T21:09:19.129Z,11.50
2022-09-27T21:11:48.490Z,11.50
2022-09-27T21:14:17.150Z,11.50
2022-09-27T21:16:45.449Z,11.40
2022-09-27T21:19:13.978Z,11.40
2022-09-27T21:21:42.456Z,11.30
2022-09-27T21:24:12.374Z,11.30
2022-09-27T21:26:40.756Z,11.20
2022-09-27T21:29:11.741Z,11.20
2022-09-27T21:31:40.280Z,11.20
2022-09-27T21:34:08.701Z,11.10
2022-09-27T21:36:38.974Z,11.00
2022-09-27T21:39:09.467Z,11.00
2022-09-27T21:41:40.037Z,10.90
2022-09-27T21:44:09.175Z,10.90
2022-09-27T21:46:41.449Z,10.80
2022-09-27T21:49:11.139Z,10.80
2022-09-27T21:51:41.772Z,10.70
2022-09-27T21:54:13.505Z,10.60
2022-09-27T21:56:44.616Z,10.60
2022-09-27T21:59:16.161Z,10.50
2022-09-27T22:01:46.118Z,10.40
2022-09-27T22:04:14.856Z,10.40
2022-09-27T22:06:44.246Z,10.30
2022-09-27T22:09:15.458Z,10.20
2022-09-27T22:11:47.558Z,10.20
2022-09-27T22:14:17.847Z,10.10
2022-09-27T22:16:46.158Z,10.10
2022-09-27T22:19:15.936Z,10.00
2022-09-27T22:21:44.855Z,10.00
2022-09-27T22:24:14.919Z,9.90
2022-09-27T22:26:48.226Z,9.90
2022-09-27T22:29:16.965Z,9.90
2022-09-27T22:31:45.446Z,9.90
2022-09-27T22:34:18.684Z,9.90
2022-09-27T22:36:47.664Z,9.90
2022-09-27T22:39:16.256Z,9.90
2022-09-27T22:41:46.116Z,9.90
2022-09-27T22:44:14.396Z,9.80
2022-09-27T22:46:42.809Z,9.80
2022-09-27T22:49:11.047Z,9.70
2022-09-27T22:51:39.615Z,9.70
2022-09-27T22:54:07.966Z,9.60
2022-09-27T22:56:36.248Z,9.60
2022-09-27T22:59:05.945Z,9.60
2022-09-27T23:01:36.223Z,9.50
2022-09-27T23:04:04.618Z,9.50
2022-09-27T23:06:33.493Z,9.40
2022-09-27T23:09:02.779Z,9.40
2022-09-27T23:11:31.716Z,9.40
2022-09-27T23:14:00.069Z,9.30
2022-09-27T23:16:29.764Z,9.30
2022-09-27T23:18:58.386Z,9.30
2022-09-27T23:21:28.722Z,9.20
2022-09-27T23:23:59.889Z,9.20
2022-09-27T23:26:29.094Z,9.10
2022-09-27T23:28:58.745Z,9.10
2022-09-27T23:31:29.728Z,9.10
2022-09-27T23:34:03.186Z,9.00
2022-09-27T23:36:31.481Z,9.00
2022-09-27T23:39:01.566Z,8.90
2022-09-27T23:41:30.186Z,8.90
2022-09-27T23:43:58.492Z,8.80
2022-09-27T23:46:26.893Z,8.80
2022-09-27T23:48:58.930Z,8.70
2022-09-27T23:51:28.544Z,8.70
2022-09-27T23:53:58.213Z,8.60
2022-09-27T23:56:26.776Z,8.60
2022-09-27T23:58:54.994Z,8.50
